createdAt,value
2019-03-23T00:01:19.570Z,9.84
2019-03-23T00:03:49.618Z,9.85
2019-03-23T00:06:30.212Z,9.90
2019-03-23T00:08:50.039Z,9.91
2019-03-23T00:11:20.057Z,10.03
2019-03-23T00:13:50.104Z,10.12
2019-03-23T00:16:20.123Z,10.14
2019-03-23T00:18:50.165Z,10.14
2019-03-23T00:21:20.519Z,10.12
2019-03-23T00:23:50.573Z,10.07
2019-03-23T00:26:20.958Z,10.03
2019-03-23T00:28:51.012Z,10.11
2019-03-23T00:31:21.398Z,10.05
2019-03-23T00:33:51.741Z,10.13
2019-03-23T00:36:21.775Z,10.00
2019-03-23T00:38:51.809Z,10.05
2019-03-23T00:41:21.863Z,10.04
2019-03-23T00:43:51.896Z,9.98
2019-03-23T00:46:21.921Z,9.87
2019-03-23T00:48:51.975Z,9.86
2019-03-23T00:51:22.010Z,9.85
2019-03-23T00:53:52.045Z,9.59
2019-03-23T00:56:22.371Z,9.55
2019-03-23T00:58:52.408Z,9.36
2019-03-23T01:01:22.441Z,9.07
2019-03-23T01:03:52.870Z,8.91
2019-03-23T01:06:22.899Z,8.94
2019-03-23T01:08:52.951Z,8.78
2019-03-23T01:11:22.989Z,8.69
2019-03-23T01:13:53.039Z,8.69
2019-03-23T01:16:23.081Z,8.58
2019-03-23T01:18:53.136Z,8.86
2019-03-23T01:21:23.186Z,8.67
2019-03-23T01:23:53.507Z,8.60
2019-03-23T01:26:23.528Z,8.58
2019-03-23T01:28:53.589Z,8.53
2019-03-23T01:31:23.927Z,8.47
2019-03-23T01:33:54.011Z,8.41
2019-03-23T01:36:24.040Z,8.21
2019-03-23T01:38:54.402Z,8.20
2019-03-23T01:41:24.547Z,8.21
2019-03-23T01:43:54.917Z,8.32
2019-03-23T01:46:24.965Z,8.18
2019-03-23T01:48:55.019Z,8.25
2019-03-23T01:51:25.373Z,8.15
2019-03-23T01:53:55.411Z,7.96
2019-03-23T01:56:25.476Z,7.89
2019-03-23T01:58:55.511Z,7.98
2019-03-23T02:01:25.555Z,7.83
2019-03-23T02:03:55.617Z,7.81
2019-03-23T02:06:25.666Z,7.86
2019-03-23T02:08:55.689Z,7.96
2019-03-23T02:11:25.732Z,7.99
2019-03-23T02:13:55.760Z,8.00
2019-03-23T02:16:25.822Z,7.90
2019-03-23T02:18:55.852Z,7.84
2019-03-23T02:21:25.894Z,7.79
2019-03-23T02:23:56.181Z,7.84
2019-03-23T02:26:26.266Z,7.89
2019-03-23T02:28:56.312Z,7.84
2019-03-23T02:31:26.355Z,7.83
2019-03-23T02:33:56.430Z,7.81
2019-03-23T02:36:26.459Z,7.69
2019-03-23T02:38:56.488Z,7.63
2019-03-23T02:41:26.532Z,7.57
2019-03-23T02:43:56.933Z,7.70
2019-03-23T02:46:26.995Z,7.66
2019-03-23T02:48:57.032Z,7.56
2019-03-23T02:51:27.102Z,7.49
2019-03-23T02:53:57.140Z,7.52
2019-03-23T02:56:27.175Z,7.57
2019-03-23T02:58:57.211Z,7.44
2019-03-23T03:01:27.541Z,7.51
2019-03-23T03:03:57.554Z,7.49
2019-03-23T03:06:27.617Z,7.40
2019-03-23T03:08:57.638Z,7.47
2019-03-23T03:11:28.006Z,7.32
2019-03-23T03:13:58.047Z,7.38
2019-03-23T03:16:28.078Z,7.40
2019-03-23T03:18:58.148Z,7.24
2019-03-23T03:21:28.196Z,7.16
2019-03-23T03:23:58.251Z,7.16
2019-03-23T03:26:28.273Z,7.18
2019-03-23T03:28:58.413Z,7.18
2019-03-23T03:31:28.440Z,7.13
2019-03-23T03:33:58.782Z,7.04
2019-03-23T03:36:30.220Z,7.04
2019-03-23T03:38:58.856Z,7.13
2019-03-23T03:41:28.884Z,7.13
2019-03-23T03:43:58.911Z,7.17
2019-03-23T03:46:28.968Z,7.07
2019-03-23T03:49:11.755Z,6.95
2019-03-23T03:51:29.301Z,6.98
2019-03-23T03:53:59.322Z,6.94
2019-03-23T03:56:29.356Z,6.86
2019-03-23T03:58:59.396Z,6.82
2019-03-23T04:01:29.409Z,6.62
2019-03-23T04:03:59.454Z,6.58
2019-03-23T04:06:29.513Z,6.67
2019-03-23T04:08:59.801Z,6.72
2019-03-23T04:11:30.131Z,6.70
2019-03-23T04:14:00.157Z,6.62
2019-03-23T04:16:30.266Z,6.59
2019-03-23T04:19:00.596Z,6.55
2019-03-23T04:21:30.906Z,6.44
2019-03-23T04:24:00.954Z,6.39
2019-03-23T04:26:30.959Z,6.13
2019-03-23T04:29:00.979Z,6.27
2019-03-23T04:31:31.021Z,6.33
2019-03-23T04:34:01.075Z,6.35
2019-03-23T04:36:31.405Z,6.40
2019-03-23T04:39:01.429Z,6.36
2019-03-23T04:41:31.477Z,6.34
2019-03-23T04:44:01.500Z,6.40
2019-03-23T04:46:31.541Z,6.43
2019-03-23T04:49:01.571Z,6.38
2019-03-23T04:51:31.653Z,6.27
2019-03-23T04:54:01.705Z,6.23
2019-03-23T04:56:31.736Z,6.29
2019-03-23T04:59:02.003Z,6.22
2019-03-23T05:01:32.085Z,6.17
2019-03-23T05:04:02.109Z,5.99
2019-03-23T05:06:32.545Z,6.08
2019-03-23T05:09:02.551Z,6.08
2019-03-23T05:11:32.599Z,6.00
2019-03-23T05:14:02.890Z,5.99
2019-03-23T05:19:12.285Z,5.97
2019-03-23T05:21:42.301Z,5.96
2019-03-23T05:24:12.327Z,5.93
2019-03-23T05:26:42.366Z,5.94
2019-03-23T05:29:12.389Z,5.93
2019-03-23T05:31:42.433Z,5.90
2019-03-23T05:34:12.482Z,5.89
2019-03-23T05:36:42.531Z,5.95
2019-03-23T05:39:12.553Z,5.87
2019-03-23T05:41:42.614Z,5.93
2019-03-23T05:44:12.636Z,5.84
2019-03-23T05:46:42.671Z,5.82
2019-03-23T05:49:12.981Z,5.78
2019-03-23T05:51:43.031Z,5.82
2019-03-23T05:54:13.022Z,5.87
2019-03-23T05:56:43.365Z,5.91
2019-03-23T05:59:13.384Z,5.77
2019-03-23T06:01:43.418Z,5.89
2019-03-23T06:04:13.463Z,6.00
2019-03-23T06:06:43.474Z,6.09
2019-03-23T06:09:13.854Z,5.97
2019-03-23T06:11:44.174Z,6.03
2019-03-23T06:16:54.167Z,6.17
2019-03-23T06:19:24.463Z,6.16
2019-03-23T06:21:54.525Z,6.16
2019-03-23T06:24:24.555Z,6.18
2019-03-23T06:26:54.917Z,6.23
2019-03-23T06:29:25.250Z,6.25
2019-03-23T06:31:55.303Z,6.44
2019-03-23T06:34:25.578Z,6.60
2019-03-23T06:36:55.628Z,6.74
2019-03-23T06:39:26.018Z,6.91
2019-03-23T06:41:56.456Z,6.90
2019-03-23T06:47:05.865Z,7.04
2019-03-23T06:49:35.886Z,7.09
2019-03-23T06:52:05.936Z,7.18
2019-03-23T06:54:36.000Z,7.26
2019-03-23T06:57:06.032Z,7.37
2019-03-23T06:59:36.395Z,7.48
2019-03-23T07:04:46.200Z,7.83
2019-03-23T07:07:17.083Z,8.02
2019-03-23T07:09:47.118Z,8.11
2019-03-23T07:12:17.157Z,8.31
2019-03-23T07:14:47.234Z,8.51
2019-03-23T07:17:17.262Z,8.70
2019-03-23T07:19:47.305Z,8.80
2019-03-23T07:22:17.389Z,9.01
2019-03-23T07:24:47.430Z,9.14
2019-03-23T07:27:17.481Z,9.25
2019-03-23T07:29:47.514Z,9.31
2019-03-23T07:32:17.554Z,9.44
2019-03-23T07:34:47.594Z,9.73
2019-03-23T07:37:17.628Z,10.04
2019-03-23T07:39:47.667Z,10.19
2019-03-23T07:42:18.051Z,10.46
2019-03-23T07:44:48.332Z,10.64
2019-03-23T07:47:18.359Z,10.94
2019-03-23T07:49:48.413Z,11.16
2019-03-23T07:52:18.440Z,11.36
2019-03-23T07:54:48.850Z,11.67
2019-03-23T07:57:19.244Z,11.88
2019-03-23T07:59:49.277Z,12.28
2019-03-23T08:02:19.681Z,12.26
2019-03-23T08:07:29.433Z,12.82
2019-03-23T08:09:59.461Z,12.82
2019-03-23T08:12:29.520Z,12.97
2019-03-23T08:14:59.550Z,13.23
2019-03-23T08:17:29.582Z,13.50
2019-03-23T08:19:59.637Z,13.62
2019-03-23T08:22:29.939Z,13.99
2019-03-23T08:24:59.998Z,14.28
2019-03-23T08:27:30.037Z,14.37
2019-03-23T08:30:00.416Z,14.35
2019-03-23T08:32:30.459Z,13.69
2019-03-23T08:35:00.840Z,13.36
2019-03-23T08:37:30.977Z,13.37
2019-03-23T08:40:00.908Z,13.55
2019-03-23T08:42:31.282Z,13.62
2019-03-23T08:45:01.343Z,13.69
2019-03-23T08:47:31.378Z,13.76
2019-03-23T08:50:01.429Z,13.95
2019-03-23T08:52:31.863Z,14.10
2019-03-23T08:55:02.186Z,14.23
2019-03-23T08:57:32.219Z,14.29
2019-03-23T09:00:02.255Z,14.36
2019-03-23T09:02:32.286Z,14.38
2019-03-23T09:05:02.338Z,14.52
2019-03-23T09:07:32.405Z,14.78
2019-03-23T09:10:02.807Z,14.77
2019-03-23T09:12:33.122Z,14.89
2019-03-23T09:15:03.179Z,14.83
2019-03-23T09:17:33.217Z,14.96
2019-03-23T09:20:03.254Z,14.99
2019-03-23T09:22:33.306Z,15.05
2019-03-23T09:25:03.705Z,15.01
2019-03-23T09:27:33.728Z,15.03
2019-03-23T09:30:03.779Z,15.09
2019-03-23T09:32:34.166Z,15.20
2019-03-23T09:35:04.221Z,15.17
2019-03-23T09:37:38.272Z,15.22
2019-03-23T09:40:10.836Z,15.18
2019-03-23T09:45:14.353Z,15.17
2019-03-23T09:47:44.082Z,15.31
2019-03-23T09:50:14.161Z,15.44
2019-03-23T09:52:44.539Z,15.35
2019-03-23T09:55:14.970Z,15.26
2019-03-23T09:57:45.007Z,15.37
2019-03-23T10:00:15.086Z,15.42
2019-03-23T10:02:45.135Z,15.56
2019-03-23T10:05:15.191Z,15.59
2019-03-23T10:07:45.240Z,15.71
2019-03-23T10:10:21.734Z,15.86
2019-03-23T10:12:45.918Z,15.97
2019-03-23T10:15:15.986Z,15.98
2019-03-23T10:17:46.025Z,16.07
2019-03-23T10:20:16.100Z,15.99
2019-03-23T10:22:46.168Z,16.10
2019-03-23T10:25:16.228Z,16.18
2019-03-23T10:27:46.276Z,16.34
2019-03-23T10:30:16.616Z,16.35
2019-03-23T10:32:46.663Z,16.32
2019-03-23T10:35:17.065Z,16.50
2019-03-23T10:37:47.134Z,16.46
2019-03-23T10:40:17.498Z,16.60
2019-03-23T10:42:47.571Z,16.58
2019-03-23T10:45:17.608Z,16.51
2019-03-23T10:47:47.741Z,16.54
2019-03-23T10:50:18.088Z,16.66
2019-03-23T10:55:28.533Z,16.81
2019-03-23T10:57:58.570Z,17.00
2019-03-23T11:00:28.626Z,16.77
2019-03-23T11:02:58.989Z,16.85
2019-03-23T11:05:29.037Z,16.99
2019-03-23T11:07:59.457Z,17.00
2019-03-23T11:10:29.886Z,17.09
2019-03-23T11:13:00.063Z,17.19
2019-03-23T11:15:30.307Z,17.17
2019-03-23T11:18:00.358Z,17.27
2019-03-23T11:20:30.421Z,17.20
2019-03-23T11:23:00.801Z,17.35
2019-03-23T11:25:30.865Z,17.37
2019-03-23T11:28:01.161Z,17.42
2019-03-23T11:30:31.224Z,17.33
2019-03-23T11:33:01.534Z,17.43
2019-03-23T11:35:31.578Z,17.47
2019-03-23T11:40:41.113Z,17.47
2019-03-23T11:43:11.441Z,17.55
2019-03-23T11:45:42.328Z,17.37
2019-03-23T11:48:12.276Z,17.35
2019-03-23T11:50:42.329Z,17.47
2019-03-23T11:53:12.748Z,17.42
2019-03-23T11:55:42.792Z,17.50
2019-03-23T11:58:13.185Z,17.62
2019-03-23T12:00:43.231Z,17.66
2019-03-23T12:03:13.287Z,17.81
2019-03-23T12:05:43.336Z,17.79
2019-03-23T12:08:13.383Z,17.82
2019-03-23T12:10:43.456Z,17.91
2019-03-23T12:13:13.502Z,17.90
2019-03-23T12:15:43.886Z,17.88
2019-03-23T12:18:14.201Z,18.01
2019-03-23T12:20:44.532Z,17.85
2019-03-23T12:23:14.997Z,18.00
2019-03-23T12:25:45.389Z,18.05
2019-03-23T12:28:15.454Z,17.94
2019-03-23T12:30:45.488Z,17.99
2019-03-23T12:33:15.554Z,18.12
2019-03-23T12:35:45.573Z,17.95
2019-03-23T12:40:55.016Z,17.85
2019-03-23T12:43:25.058Z,17.65
2019-03-23T12:48:34.488Z,17.74
2019-03-23T12:51:04.538Z,17.94
2019-03-23T12:53:34.596Z,18.02
2019-03-23T12:58:44.367Z,18.00
2019-03-23T13:01:14.690Z,17.88
2019-03-23T13:03:44.755Z,17.85
2019-03-23T13:06:14.805Z,18.00
2019-03-23T13:08:45.147Z,18.00
2019-03-23T13:11:23.098Z,18.07
2019-03-23T13:13:45.644Z,17.95
2019-03-23T13:16:16.005Z,17.99
2019-03-23T13:18:46.090Z,17.68
2019-03-23T13:21:16.491Z,18.03
2019-03-23T13:23:46.564Z,18.03
2019-03-23T13:26:16.603Z,18.02
2019-03-23T13:28:46.671Z,17.94
2019-03-23T13:31:16.727Z,17.98
2019-03-23T13:33:46.794Z,18.03
2019-03-23T13:36:17.155Z,17.99
2019-03-23T13:38:47.195Z,17.85
2019-03-23T13:41:17.242Z,17.83
2019-03-23T13:43:47.468Z,17.97
2019-03-23T13:46:17.513Z,18.12
2019-03-23T13:48:47.587Z,18.04
2019-03-23T13:51:17.661Z,17.88
2019-03-23T13:53:47.714Z,17.91
2019-03-23T13:56:18.205Z,17.88
2019-03-23T13:58:48.148Z,17.78
2019-03-23T14:01:18.224Z,17.64
2019-03-23T14:03:48.275Z,17.76
2019-03-23T14:06:18.323Z,17.64
2019-03-23T14:08:48.382Z,17.67
2019-03-23T14:11:18.717Z,17.69
2019-03-23T14:13:48.776Z,17.61
2019-03-23T14:16:18.836Z,17.59
2019-03-23T14:18:49.175Z,17.63
2019-03-23T14:21:19.586Z,17.74
2019-03-23T14:23:49.629Z,17.83
2019-03-23T14:26:19.694Z,17.73
2019-03-23T14:28:49.745Z,17.66
2019-03-23T14:31:19.791Z,17.64
2019-03-23T14:33:49.844Z,17.48
2019-03-23T14:36:19.898Z,17.56
2019-03-23T14:38:49.924Z,17.74
2019-03-23T14:41:19.987Z,17.55
2019-03-23T14:43:50.291Z,17.46
2019-03-23T14:46:20.345Z,17.48
2019-03-23T14:48:50.702Z,17.49
2019-03-23T14:51:21.018Z,17.57
2019-03-23T14:53:51.326Z,17.43
2019-03-23T14:56:21.374Z,17.77
2019-03-23T14:58:51.431Z,17.53
2019-03-23T15:01:21.478Z,17.45
2019-03-23T15:03:51.519Z,17.45
2019-03-23T15:06:21.584Z,17.26
2019-03-23T15:08:51.626Z,17.35
2019-03-23T15:11:21.695Z,17.21
2019-03-23T15:13:51.735Z,17.19
2019-03-23T15:16:22.117Z,16.97
2019-03-23T15:18:52.515Z,16.91
2019-03-23T15:21:22.595Z,16.85
2019-03-23T15:23:52.945Z,16.81
2019-03-23T15:26:23.281Z,16.69
2019-03-23T15:28:53.322Z,16.42
2019-03-23T15:31:23.744Z,16.36
2019-03-23T15:33:54.037Z,15.93
2019-03-23T15:36:24.095Z,15.81
2019-03-23T15:38:54.485Z,15.73
2019-03-23T15:44:04.463Z,15.66
2019-03-23T15:49:14.250Z,15.57
2019-03-23T15:51:44.623Z,15.29
2019-03-23T15:54:14.710Z,15.13
2019-03-23T15:59:24.142Z,15.00
2019-03-23T16:01:54.521Z,14.95
2019-03-23T16:04:24.578Z,14.83
2019-03-23T16:06:56.754Z,14.93
2019-03-23T16:09:24.981Z,14.98
2019-03-23T16:11:55.034Z,14.81
2019-03-23T16:14:25.072Z,14.69
2019-03-23T16:16:55.130Z,14.57
2019-03-23T16:19:25.213Z,14.57
2019-03-23T16:21:55.237Z,14.53
2019-03-23T16:24:25.305Z,14.26
2019-03-23T16:26:55.352Z,14.30
2019-03-23T16:29:25.401Z,14.16
2019-03-23T16:31:55.442Z,14.12
2019-03-23T16:34:25.751Z,14.09
2019-03-23T16:36:55.814Z,13.88
2019-03-23T16:39:25.839Z,13.78
2019-03-23T16:41:55.902Z,13.55
2019-03-23T16:44:25.942Z,13.35
2019-03-23T16:46:56.011Z,13.27
2019-03-23T16:49:26.101Z,13.28
2019-03-23T16:51:56.198Z,13.15
2019-03-23T16:54:26.209Z,13.13
2019-03-23T16:56:56.636Z,12.87
2019-03-23T16:59:26.704Z,13.17
2019-03-23T17:01:57.007Z,13.04
2019-03-23T17:07:07.116Z,12.58
2019-03-23T17:09:37.149Z,12.42
2019-03-23T17:12:07.234Z,12.38
2019-03-23T17:14:37.261Z,12.22
2019-03-23T17:17:07.288Z,12.01
2019-03-23T17:22:17.464Z,11.45
2019-03-23T17:24:47.491Z,11.76
2019-03-23T17:27:17.550Z,11.43
2019-03-23T17:29:47.913Z,11.51
2019-03-23T17:32:17.947Z,11.54
2019-03-23T17:34:48.004Z,11.44
2019-03-23T17:37:18.370Z,11.10
2019-03-23T17:39:48.417Z,11.21
2019-03-23T17:42:18.457Z,10.99
2019-03-23T17:47:27.864Z,10.96
2019-03-23T17:49:57.909Z,10.96
2019-03-23T17:52:27.942Z,10.74
2019-03-23T17:57:37.364Z,10.62
2019-03-23T18:02:46.506Z,10.52
2019-03-23T18:05:16.553Z,10.44
2019-03-23T18:07:46.588Z,10.57
2019-03-23T18:10:16.643Z,10.36
2019-03-23T18:12:46.944Z,10.34
2019-03-23T18:15:17.294Z,10.42
2019-03-23T18:17:47.688Z,10.27
2019-03-23T18:20:17.740Z,10.37
2019-03-23T18:22:47.774Z,10.50
2019-03-23T18:25:17.819Z,10.51
2019-03-23T18:27:47.866Z,10.64
2019-03-23T18:30:42.234Z,10.35
2019-03-23T18:33:12.273Z,10.33
2019-03-23T18:35:42.676Z,10.33
2019-03-23T18:38:12.999Z,10.18
2019-03-23T18:40:43.060Z,10.27
2019-03-23T18:43:13.094Z,10.08
2019-03-23T18:48:22.560Z,10.26
2019-03-23T18:50:52.644Z,10.21
2019-03-23T18:53:24.049Z,10.31
2019-03-23T18:55:52.757Z,10.08
2019-03-23T18:58:22.782Z,9.92
2019-03-23T19:00:52.872Z,10.03
2019-03-23T19:03:23.210Z,10.03
2019-03-23T19:05:53.253Z,9.87
2019-03-23T19:08:23.288Z,9.93
2019-03-23T19:10:53.645Z,10.10
2019-03-23T19:13:23.690Z,10.17
2019-03-23T19:15:53.730Z,10.04
2019-03-23T19:18:23.757Z,9.87
2019-03-23T19:20:54.039Z,9.81
2019-03-23T19:23:24.068Z,9.82
2019-03-23T19:25:54.124Z,9.91
2019-03-23T19:28:24.155Z,9.70
2019-03-23T19:30:54.203Z,9.83
2019-03-23T19:33:24.514Z,9.94
2019-03-23T19:38:34.473Z,9.90
2019-03-23T19:41:05.670Z,9.82
2019-03-23T19:46:14.180Z,9.74
2019-03-23T19:48:44.567Z,9.58
2019-03-23T19:51:14.626Z,9.56
2019-03-23T19:53:44.661Z,9.68
2019-03-23T19:56:14.692Z,9.71
2019-03-23T19:58:44.743Z,9.68
2019-03-23T20:01:14.820Z,9.64
2019-03-23T20:03:44.833Z,9.60
2019-03-23T20:06:15.230Z,9.55
2019-03-23T20:08:45.632Z,9.66
2019-03-23T20:11:15.696Z,9.45
2019-03-23T20:13:46.148Z,9.44
2019-03-23T20:16:16.211Z,9.48
2019-03-23T20:18:46.584Z,9.46
2019-03-23T20:21:16.621Z,9.56
2019-03-23T20:23:46.666Z,9.45
2019-03-23T20:26:16.720Z,9.45
2019-03-23T20:31:26.400Z,9.31
2019-03-23T20:33:56.733Z,9.21
2019-03-23T20:36:26.782Z,9.17
2019-03-23T20:38:56.818Z,9.04
2019-03-23T20:41:26.882Z,9.22
2019-03-23T20:43:57.212Z,9.11
2019-03-23T20:46:27.248Z,8.95
2019-03-23T20:48:57.295Z,8.79
2019-03-23T20:51:27.343Z,8.84
2019-03-23T20:53:57.377Z,8.80
2019-03-23T20:56:27.445Z,8.74
2019-03-23T20:58:57.733Z,8.66
2019-03-23T21:01:27.808Z,8.46
2019-03-23T21:03:57.830Z,8.51
2019-03-23T21:06:27.900Z,8.53
2019-03-23T21:08:57.924Z,8.54
2019-03-23T21:11:27.969Z,8.41
2019-03-23T21:13:58.019Z,8.49
2019-03-23T21:16:28.055Z,8.42
2019-03-23T21:18:58.092Z,8.48
2019-03-23T21:21:28.461Z,8.42
2019-03-23T21:23:58.504Z,8.30
2019-03-23T21:26:28.580Z,8.28
2019-03-23T21:28:58.616Z,8.21
2019-03-23T21:31:28.666Z,8.28
2019-03-23T21:33:58.703Z,8.10
2019-03-23T21:36:28.810Z,8.29
2019-03-23T21:38:59.175Z,8.32
2019-03-23T21:41:29.234Z,8.18
2019-03-23T21:46:39.267Z,8.08
2019-03-23T21:49:09.296Z,8.18
2019-03-23T21:51:39.348Z,8.20
2019-03-23T21:54:09.397Z,8.17
2019-03-23T21:56:39.738Z,8.09
2019-03-23T21:59:09.773Z,8.09
2019-03-23T22:01:39.855Z,8.09
2019-03-23T22:04:11.358Z,8.12
2019-03-23T22:06:39.936Z,8.16
2019-03-23T22:09:10.326Z,8.20
2019-03-23T22:11:40.373Z,8.27
2019-03-23T22:14:10.780Z,8.27
2019-03-23T22:16:41.202Z,8.20
2019-03-23T22:19:11.610Z,8.23
2019-03-23T22:21:41.667Z,8.23
2019-03-23T22:24:12.081Z,8.25
2019-03-23T22:26:42.084Z,8.22
2019-03-23T22:29:12.135Z,8.17
2019-03-23T22:31:42.171Z,8.22
2019-03-23T22:34:12.241Z,8.25
2019-03-23T22:36:42.289Z,8.18
2019-03-23T22:39:12.343Z,8.27
2019-03-23T22:41:42.368Z,8.32
2019-03-23T22:44:12.418Z,8.24
2019-03-23T22:46:42.453Z,8.12
2019-03-23T22:49:12.809Z,8.21
2019-03-23T22:51:42.850Z,8.36
2019-03-23T22:54:12.897Z,8.47
2019-03-23T22:59:22.307Z,8.34
2019-03-23T23:01:52.345Z,8.27
2019-03-23T23:04:22.399Z,8.25
2019-03-23T23:06:52.426Z,8.30
2019-03-23T23:09:22.483Z,8.34
2019-03-23T23:11:52.787Z,8.35
2019-03-23T23:14:22.835Z,8.48
2019-03-23T23:16:52.865Z,8.46
2019-03-23T23:19:22.924Z,8.43
2019-03-23T23:21:52.975Z,8.39
2019-03-23T23:24:23.044Z,8.50
2019-03-23T23:26:53.386Z,8.51
2019-03-23T23:29:23.441Z,8.49
2019-03-23T23:31:53.828Z,8.54
2019-03-23T23:34:23.877Z,8.57
2019-03-23T23:36:53.911Z,8.50
2019-03-23T23:39:23.995Z,8.53
2019-03-23T23:41:54.025Z,8.49
2019-03-23T23:44:24.429Z,8.50
2019-03-23T23:46:54.496Z,8.57
2019-03-23T23:49:24.545Z,8.55
2019-03-23T23:51:54.588Z,8.51
2019-03-23T23:54:24.629Z,8.52
2019-03-23T23:56:55.009Z,8.53
2019-03-23T23:59:25.066Z,8.57
